Wan Hai 273 — 9V7586 — position and weather

sailwx.info

Track history (hours):
 
Tides and Currents Weather Stations Pressure Air Temp Water Temp Dewpoint Dewpoint Depression Visibility Wind Speed Wind Dir Waves Ship Positions

Wan Hai 273

Last reported at 2017-Apr-11 01:15 UTC. Time now 2017-Apr-25 16:31 UTC.
Position N 22°19' E 114°07'.
Warning: this ship's position is 14 days out of date.

Length 172 m; draft 7.8 m.

Type: Cargo ship. MMSI: 566406000.

Date/timePositionNaut miles runAvg speedWind from/ knotsBaromVisibWave heightAir tempDewpointWater temp
2017-Apr-11 01:15N 22°19' E 114°07'1 0.7
2017-Apr-10 23:47N 22°20' E 114°07'0 0.0
2017-Apr-10 21:11N 22°20' E 114°07'0 0.0
2017-Apr-10 20:59N 22°20' E 114°07'0 0.0
2017-Apr-10 18:07N 22°20' E 114°07'0 1.8
2017-Apr-10 17:58N 22°20' E 114°07'  
2017-Apr-08 13:21N 22°32' E 119°50'616.8
2017-Apr-08 13:00N 22°32' E 119°56'917.0
2017-Apr-08 12:29N 22°32' E 120°05'816.9
2017-Apr-08 12:00N 22°33' E 120°14'4 8.7
2017-Apr-08 11:30N 22°34' E 120°19'1 1.4
2017-Apr-08 10:59N 22°35' E 120°18'0 0.0
2017-Apr-08 09:29N 22°35' E 120°18'0 0.0
2017-Apr-08 06:56N 22°35' E 120°18'0 0.0
2017-Apr-08 05:44N 22°35' E 120°18'0 0.0
2017-Apr-08 05:26N 22°35' E 120°18'0 0.0
2017-Apr-08 04:53N 22°35' E 120°18'0 0.0
2017-Apr-08 04:29N 22°35' E 120°18'0 0.3
2017-Apr-08 04:00N 22°35' E 120°18'3 6.3
2017-Apr-08 03:30N 22°37' E 120°16'4 8.7
2017-Apr-08 03:00N 22°37' E 120°11'2 3.7
2017-Apr-08 02:30N 22°38' E 120°09'1 1.1
2017-Apr-08 02:00N 22°39' E 120°09'0 0.9
2017-Apr-08 01:30N 22°39' E 120°09'1 3.0
2017-Apr-08 01:00N 22°40' E 120°08'816.1
2017-Apr-08 00:30N 22°48' E 120°05'  
Track history (hours):
 
Tides and Currents Weather Stations Pressure Air Temp Water Temp Dewpoint Dewpoint Depression Visibility Wind Speed Wind Dir Waves Ship Positions

Wan Hai 273

Last reported at 2017-Apr-11 01:15 UTC. Time now 2017-Apr-25 16:31 UTC.
Position N 22°19' E 114°07'.
Warning: this ship's position is 14 days out of date.

Length 172 m; draft 7.8 m.

Type: Cargo ship. MMSI: 566406000.

Date/timePositionNaut miles runAvg speedWind from/ knotsBaromVisibWave heightAir tempDewpointWater temp
2017-Apr-11 01:15N 22°19' E 114°07'1 0.7
2017-Apr-10 23:47N 22°20' E 114°07'0 0.0
2017-Apr-10 21:11N 22°20' E 114°07'0 0.0
2017-Apr-10 20:59N 22°20' E 114°07'0 0.0
2017-Apr-10 18:07N 22°20' E 114°07'0 1.8
2017-Apr-10 17:58N 22°20' E 114°07'  
2017-Apr-08 13:21N 22°32' E 119°50'616.8
2017-Apr-08 13:00N 22°32' E 119°56'917.0
2017-Apr-08 12:29N 22°32' E 120°05'816.9
2017-Apr-08 12:00N 22°33' E 120°14'4 8.7
2017-Apr-08 11:30N 22°34' E 120°19'1 1.4
2017-Apr-08 10:59N 22°35' E 120°18'0 0.0
2017-Apr-08 09:29N 22°35' E 120°18'0 0.0
2017-Apr-08 06:56N 22°35' E 120°18'0 0.0
2017-Apr-08 05:44N 22°35' E 120°18'0 0.0
2017-Apr-08 05:26N 22°35' E 120°18'0 0.0
2017-Apr-08 04:53N 22°35' E 120°18'0 0.0
2017-Apr-08 04:29N 22°35' E 120°18'0 0.3
2017-Apr-08 04:00N 22°35' E 120°18'3 6.3
2017-Apr-08 03:30N 22°37' E 120°16'4 8.7
2017-Apr-08 03:00N 22°37' E 120°11'2 3.7
2017-Apr-08 02:30N 22°38' E 120°09'1 1.1
2017-Apr-08 02:00N 22°39' E 120°09'0 0.9
2017-Apr-08 01:30N 22°39' E 120°09'1 3.0
2017-Apr-08 01:00N 22°40' E 120°08'816.1
2017-Apr-08 00:30N 22°48' E 120°05'  

Dump ship's entire track history